Time;durP1;ratioP1;P1;durP2;ratioP2;P2;SDS_P1;SDS_P2;PMS_P1;PMS_P2;Temp;Humidity;BMP_temperature;BMP_pressure;BME280_temperature;BME280_humidity;BME280_pressure;Samples;Min_cycle;Max_cycle;Signal;HPM_P1;HPM_P2
2022/03/16 00:01:18;;;;;;;98.63;53.50;;;6.80;99.90;;;;;;5088061;28;20227;-85
2022/03/16 00:04:08;;;;;;;95.87;54.07;;;6.60;99.90;;;;;;5085659;28;20223;-86
2022/03/16 00:06:57;;;;;;;90.57;51.80;;;6.60;99.90;;;;;;5076822;28;20228;-85
2022/03/16 00:09:46;;;;;;;97.13;53.37;;;6.60;99.90;;;;;;5074092;28;20275;-83
2022/03/16 00:12:36;;;;;;;88.80;49.87;;;6.60;99.90;;;;;;5071638;28;20215;-84
2022/03/16 00:15:25;;;;;;;86.70;49.40;;;6.70;99.90;;;;;;5065139;28;20215;-85
2022/03/16 00:18:14;;;;;;;84.27;48.87;;;6.80;99.90;;;;;;5081958;28;20230;-84
2022/03/16 00:21:03;;;;;;;88.67;50.30;;;6.60;99.90;;;;;;5070621;28;20224;-85
2022/03/16 00:23:52;;;;;;;90.07;49.63;;;6.70;99.90;;;;;;5071015;28;20277;-84
2022/03/16 00:26:41;;;;;;;92.33;52.67;;;6.70;99.90;;;;;;5089384;28;20408;-84
2022/03/16 00:29:31;;;;;;;93.30;50.97;;;6.80;99.90;;;;;;5070465;28;20593;-85
2022/03/16 00:32:24;;;;;;;79.47;45.17;;;6.70;99.90;;;;;;5082659;28;20215;-85
2022/03/16 00:35:13;;;;;;;79.70;47.87;;;6.70;99.90;;;;;;5092457;28;20227;-85
2022/03/16 00:38:01;;;;;;;81.60;46.53;;;6.80;99.90;;;;;;5102317;28;20203;-84
2022/03/16 00:40:50;;;;;;;78.07;45.83;;;6.80;99.90;;;;;;5088084;28;20223;-84
2022/03/16 00:43:39;;;;;;;77.27;44.93;;;6.70;99.90;;;;;;5096910;28;20223;-84
2022/03/16 00:46:29;;;;;;;77.80;45.23;;;6.80;99.90;;;;;;5095419;28;20221;-84
2022/03/16 00:49:19;;;;;;;82.23;46.33;;;6.80;99.90;;;;;;5093032;28;20226;-84
2022/03/16 00:52:08;;;;;;;81.10;48.17;;;6.80;99.90;;;;;;5098391;28;20219;-85
2022/03/16 00:54:57;;;;;;;77.43;44.60;;;6.70;99.90;;;;;;5096955;28;20219;-85
2022/03/16 00:57:46;;;;;;;82.53;46.23;;;6.60;99.90;;;;;;5080655;28;20226;-85
2022/03/16 01:00:35;;;;;;;76.77;44.50;;;6.50;99.90;;;;;;5083119;28;20211;-85
2022/03/16 01:03:29;;;;;;;73.27;43.67;;;6.50;99.90;;;;;;5076308;28;20378;-85
2022/03/16 01:06:20;;;;;;;75.03;42.17;;;6.40;99.90;;;;;;5075098;28;20306;-84
2022/03/16 01:09:12;;;;;;;72.07;42.17;;;6.40;99.90;;;;;;5074976;28;20219;-84
2022/03/16 01:12:02;;;;;;;70.50;39.77;;;6.40;99.90;;;;;;5073196;28;20284;-84
2022/03/16 01:14:50;;;;;;;63.63;37.43;;;6.50;99.90;;;;;;5075741;28;20298;-80
2022/03/16 01:17:39;;;;;;;64.97;38.87;;;6.60;99.90;;;;;;5059232;28;20686;-80
2022/03/16 01:20:30;;;;;;;64.23;36.87;;;6.60;99.90;;;;;;5061623;28;20239;-80
2022/03/16 01:23:19;;;;;;;61.87;36.43;;;6.70;99.90;;;;;;5055896;28;20222;-85
2022/03/16 01:26:08;;;;;;;64.17;36.40;;;6.70;99.90;;;;;;5045479;28;20303;-85
2022/03/16 01:28:57;;;;;;;62.47;38.30;;;6.70;99.90;;;;;;5058977;28;20219;-87
2022/03/16 01:31:46;;;;;;;60.23;36.57;;;6.80;99.90;;;;;;5057009;28;20239;-85
2022/03/16 01:34:36;;;;;;;59.67;36.63;;;6.80;99.90;;;;;;5057481;28;20303;-85
2022/03/16 01:37:30;;;;;;;64.90;37.87;;;6.80;99.90;;;;;;5070673;28;20231;-85
2022/03/16 01:40:20;;;;;;;58.73;36.60;;;6.70;99.90;;;;;;5045804;28;20764;-80
2022/03/16 01:43:09;;;;;;;63.00;36.37;;;6.70;99.90;;;;;;5046391;28;20609;-81
2022/03/16 01:45:58;;;;;;;62.67;38.57;;;6.70;99.90;;;;;;5059632;28;20223;-81
2022/03/16 01:48:47;;;;;;;62.23;36.83;;;6.70;99.90;;;;;;5060813;28;20857;-80
2022/03/16 01:51:36;;;;;;;60.30;36.33;;;6.60;99.90;;;;;;5055474;28;20227;-81
2022/03/16 01:54:26;;;;;;;56.13;35.07;;;6.60;99.90;;;;;;5065821;28;20216;-79
2022/03/16 01:57:16;;;;;;;60.40;35.87;;;6.70;99.90;;;;;;5064424;28;20220;-78
2022/03/16 02:00:07;;;;;;;54.50;34.13;;;6.70;99.90;;;;;;5049518;28;20365;-83
2022/03/16 02:03:03;;;;;;;53.50;32.97;;;6.70;99.90;;;;;;5063802;28;20231;-83
2022/03/16 02:05:52;;;;;;;50.93;32.10;;;6.80;99.90;;;;;;5046373;28;20289;-81
2022/03/16 02:08:42;;;;;;;49.43;31.07;;;6.80;99.90;;;;;;5068224;28;20215;-83
2022/03/16 02:11:32;;;;;;;48.37;30.00;;;6.90;99.90;;;;;;5054823;28;20713;-82
2022/03/16 02:14:20;;;;;;;46.83;30.70;;;6.90;99.90;;;;;;5067573;28;20234;-84
2022/03/16 02:17:10;;;;;;;48.87;30.60;;;6.90;99.90;;;;;;5051490;28;20305;-84
2022/03/16 02:19:59;;;;;;;49.43;31.07;;;7.00;99.90;;;;;;5076026;28;20330;-84
2022/03/16 02:22:54;;;;;;;46.40;29.10;;;7.10;99.90;;;;;;5075966;28;20330;-85
2022/03/16 02:25:50;;;;;;;47.13;28.70;;;7.00;99.90;;;;;;5053114;28;20219;-85
2022/03/16 02:28:39;;;;;;;44.93;29.07;;;6.90;99.90;;;;;;5066369;28;20235;-84
2022/03/16 02:31:29;;;;;;;44.20;28.73;;;7.00;99.90;;;;;;5066759;28;20220;-84
2022/03/16 02:34:17;;;;;;;46.03;29.23;;;7.00;99.90;;;;;;5052350;28;20220;-84
2022/03/16 02:37:06;;;;;;;43.30;28.20;;;7.00;99.90;;;;;;5062698;28;20216;-83
2022/03/16 02:39:56;;;;;;;46.03;28.47;;;7.00;99.90;;;;;;5076605;28;20213;-84
2022/03/16 02:42:46;;;;;;;48.27;29.83;;;6.90;99.90;;;;;;5070838;28;20504;-83
2022/03/16 02:45:34;;;;;;;47.93;28.27;;;6.90;99.90;;;;;;5066094;28;20224;-84
2022/03/16 02:48:24;;;;;;;43.97;29.03;;;6.90;99.90;;;;;;5050872;28;20290;-82
2022/03/16 02:51:13;;;;;;;43.60;27.67;;;6.80;99.90;;;;;;5081092;28;20224;-83
2022/03/16 02:54:02;;;;;;;42.40;27.47;;;6.80;99.90;;;;;;5064487;28;20224;-83
2022/03/16 02:56:52;;;;;;;48.23;29.60;;;6.80;99.90;;;;;;5078742;28;20227;-83
2022/03/16 02:59:42;;;;;;;47.50;28.63;;;6.90;99.90;;;;;;5059525;28;20224;-85
2022/03/16 03:02:38;;;;;;;47.17;29.60;;;6.90;99.90;;;;;;5076357;28;20217;-79
2022/03/16 03:05:27;;;;;;;46.17;30.70;;;6.90;99.90;;;;;;5066396;28;20232;-79
2022/03/16 03:08:15;;;;;;;49.67;30.00;;;6.90;99.90;;;;;;5063096;28;20231;-79
2022/03/16 03:11:04;;;;;;;49.10;31.73;;;6.90;99.90;;;;;;5059699;28;20211;-80
2022/03/16 03:13:54;;;;;;;49.07;30.90;;;6.90;99.90;;;;;;5060990;28;20231;-81
2022/03/16 03:16:43;;;;;;;49.90;31.27;;;6.90;99.90;;;;;;5066728;28;20651;-80
2022/03/16 03:19:32;;;;;;;49.97;30.73;;;7.00;99.90;;;;;;5061760;28;20224;-79
2022/03/16 03:22:20;;;;;;;49.33;32.10;;;6.90;99.90;;;;;;5063061;28;20229;-79
2022/03/16 03:25:12;;;;;;;48.60;31.40;;;6.90;99.90;;;;;;5064596;28;20236;-79
2022/03/16 03:28:01;;;;;;;53.27;32.97;;;6.80;99.90;;;;;;5048925;28;20292;-79
2022/03/16 03:30:51;;;;;;;51.90;32.37;;;6.80;99.90;;;;;;5056473;28;20224;-79
2022/03/16 03:33:40;;;;;;;51.93;32.47;;;6.80;99.90;;;;;;5051384;28;20418;-79
2022/03/16 03:36:29;;;;;;;54.73;34.60;;;6.80;99.90;;;;;;5052877;28;20232;-79
2022/03/16 03:39:18;;;;;;;52.63;34.30;;;6.80;99.90;;;;;;5061003;28;20231;-79
2022/03/16 03:42:08;;;;;;;53.13;33.57;;;6.90;99.90;;;;;;5065093;28;20221;-79
2022/03/16 03:44:58;;;;;;;57.60;35.57;;;6.80;99.90;;;;;;5065744;28;20248;-79
2022/03/16 03:47:48;;;;;;;62.27;37.60;;;6.80;99.90;;;;;;5064064;28;20347;-79
2022/03/16 03:50:37;;;;;;;58.07;37.40;;;6.60;99.90;;;;;;5055951;28;20278;-79
2022/03/16 03:53:26;;;;;;;57.00;36.60;;;6.70;99.90;;;;;;5050096;28;20312;-79
2022/03/16 03:56:15;;;;;;;57.50;34.97;;;6.60;99.90;;;;;;5050526;28;20232;-80
2022/03/16 03:59:03;;;;;;;60.30;35.10;;;6.70;99.90;;;;;;5033623;28;20216;-79
2022/03/16 04:01:53;;;;;;;54.70;34.33;;;6.60;99.90;;;;;;5068553;28;20216;-80
2022/03/16 04:04:43;;;;;;;56.00;34.80;;;6.60;99.90;;;;;;5052125;28;20231;-80
2022/03/16 04:07:32;;;;;;;64.73;36.10;;;6.50;99.90;;;;;;5054657;28;20685;-79
2022/03/16 04:10:20;;;;;;;57.83;35.03;;;6.50;99.90;;;;;;5056710;28;20231;-79
2022/03/16 04:13:09;;;;;;;61.80;38.13;;;6.50;99.90;;;;;;5064728;28;20216;-79
2022/03/16 04:15:58;;;;;;;64.47;37.40;;;6.40;99.90;;;;;;5047991;28;20622;-78
2022/03/16 04:18:46;;;;;;;60.70;38.83;;;6.40;99.90;;;;;;5066714;28;20754;-79
2022/03/16 04:21:37;;;;;;;62.57;36.80;;;6.30;99.90;;;;;;5077186;28;20227;-79
2022/03/16 04:24:25;;;;;;;60.00;37.53;;;6.30;99.90;;;;;;5068665;28;20706;-81
2022/03/16 04:27:15;;;;;;;62.47;37.47;;;6.30;99.90;;;;;;5064351;28;20590;-79
2022/03/16 04:30:04;;;;;;;62.33;35.80;;;6.20;99.90;;;;;;5068666;28;20283;-80
2022/03/16 04:32:53;;;;;;;60.80;37.30;;;6.20;99.90;;;;;;5082461;28;20212;-81
2022/03/16 04:35:42;;;;;;;65.13;39.43;;;6.20;99.90;;;;;;5072638;28;20733;-78
2022/03/16 04:38:32;;;;;;;62.13;38.37;;;6.30;99.90;;;;;;5063934;28;20228;-77
2022/03/16 04:41:21;;;;;;;63.37;37.20;;;6.30;99.90;;;;;;5062162;28;20269;-82
2022/03/16 04:44:10;;;;;;;63.00;37.77;;;6.30;99.90;;;;;;5078463;28;20231;-82
2022/03/16 04:46:58;;;;;;;62.00;37.47;;;6.30;99.90;;;;;;5069879;28;20216;-78
2022/03/16 04:49:47;;;;;;;60.50;38.60;;;6.30;99.90;;;;;;5079586;28;20654;-80
2022/03/16 04:52:43;;;;;;;65.37;39.40;;;6.30;99.90;;;;;;5105962;27;20219;-82
2022/03/16 04:55:35;;;;;;;63.40;39.33;;;6.30;99.90;;;;;;5083095;28;20224;-83
2022/03/16 04:58:24;;;;;;;65.83;38.83;;;6.20;99.90;;;;;;5079569;28;20296;-82
2022/03/16 05:01:13;;;;;;;65.90;37.33;;;6.10;99.90;;;;;;5112461;27;20200;-82
2022/03/16 05:04:02;;;;;;;66.17;39.23;;;6.10;99.90;;;;;;5097094;28;20301;-84
2022/03/16 05:06:50;;;;;;;66.03;38.73;;;6.00;99.90;;;;;;5092384;28;20745;-84
2022/03/16 05:09:39;;;;;;;73.60;40.47;;;6.00;99.90;;;;;;5080179;28;20242;-84
2022/03/16 05:12:37;;;;;;;67.03;38.83;;;6.00;99.90;;;;;;5070083;28;20226;-83
2022/03/16 05:15:26;;;;;;;69.27;40.23;;;6.10;99.90;;;;;;5076396;28;20215;-82
2022/03/16 05:18:14;;;;;;;69.90;40.37;;;6.10;99.90;;;;;;5085143;28;20518;-84
2022/03/16 05:21:03;;;;;;;63.07;31.40;;;6.00;99.90;;;;;;5066901;28;20238;-82
2022/03/16 05:23:52;;;;;;;65.03;38.03;;;6.00;99.90;;;;;;5072311;28;20219;-82
2022/03/16 05:26:41;;;;;;;65.50;34.70;;;6.00;99.90;;;;;;5095855;28;20222;-82
2022/03/16 05:29:31;;;;;;;65.30;38.30;;;5.90;99.90;;;;;;5087212;28;20227;-83
2022/03/16 05:32:20;;;;;;;64.23;37.27;;;5.90;99.90;;;;;;5069504;28;20303;-83
2022/03/16 05:35:11;;;;;;;69.27;40.70;;;5.90;99.90;;;;;;5072004;28;20230;-82
2022/03/16 05:38:00;;;;;;;65.20;39.17;;;5.90;99.90;;;;;;5086891;28;20223;-84
2022/03/16 05:40:48;;;;;;;73.10;42.93;;;5.90;99.90;;;;;;5070967;28;20245;-82
2022/03/16 05:43:38;;;;;;;71.63;42.47;;;5.90;99.90;;;;;;5080642;28;20230;-82
2022/03/16 05:46:29;;;;;;;70.10;41.60;;;5.90;99.90;;;;;;5068094;28;20218;-82
2022/03/16 05:49:18;;;;;;;77.97;41.17;;;5.90;99.90;;;;;;5071079;28;20223;-82
2022/03/16 05:52:08;;;;;;;71.10;42.67;;;5.90;99.90;;;;;;5078950;28;20226;-82
2022/03/16 05:54:58;;;;;;;77.63;44.43;;;5.90;99.90;;;;;;5086954;28;20238;-85
2022/03/16 05:57:49;;;;;;;77.83;43.77;;;5.90;99.90;;;;;;5086399;28;20900;-83
2022/03/16 06:00:42;;;;;;;76.23;45.00;;;5.80;99.90;;;;;;5070155;28;20219;-82
2022/03/16 06:03:33;;;;;;;77.63;43.57;;;5.80;99.90;;;;;;5076322;28;20219;-89
2022/03/16 06:06:23;;;;;;;77.43;44.83;;;5.90;99.90;;;;;;5092279;28;20375;-87
2022/03/16 06:09:11;;;;;;;74.57;44.47;;;5.90;99.90;;;;;;5100794;28;20265;-87
2022/03/16 06:12:03;;;;;;;78.50;45.63;;;6.00;99.90;;;;;;5089623;28;20223;-87
2022/03/16 06:14:53;;;;;;;76.50;45.27;;;6.10;99.90;;;;;;5091157;28;20247;-86
2022/03/16 06:17:42;;;;;;;76.93;45.57;;;6.10;99.90;;;;;;5077537;28;20219;-87
2022/03/16 06:20:35;;;;;;;81.17;46.73;;;6.10;99.90;;;;;;5083178;28;20234;-87
2022/03/16 06:23:24;;;;;;;79.00;44.10;;;6.10;99.90;;;;;;5079827;28;20238;-88
2022/03/16 06:26:12;;;;;;;85.83;47.03;;;6.00;99.90;;;;;;5065286;28;20222;-88
2022/03/16 06:29:01;;;;;;;81.53;45.27;;;6.10;99.90;;;;;;5072359;28;20335;-88
2022/03/16 06:31:50;;;;;;;83.13;46.53;;;6.20;99.90;;;;;;5074020;28;20227;-88
2022/03/16 06:34:40;;;;;;;88.00;47.77;;;6.20;99.90;;;;;;5081179;28;20228;-87
2022/03/16 06:37:30;;;;;;;81.07;47.07;;;6.30;99.90;;;;;;5056513;28;20624;-88
2022/03/16 06:40:19;;;;;;;79.20;44.50;;;6.30;99.90;;;;;;5059053;28;20224;-87
2022/03/16 06:43:10;;;;;;;83.07;46.57;;;6.30;99.90;;;;;;5041215;28;20346;-79
2022/03/16 06:45:59;;;;;;;81.97;47.10;;;6.40;99.90;;;;;;5054476;28;20346;-81
2022/03/16 06:48:47;;;;;;;80.87;45.67;;;6.60;99.90;;;;;;5063620;28;20220;-80
2022/03/16 06:51:37;;;;;;;82.30;47.57;;;6.50;99.90;;;;;;5050773;28;20231;-80
2022/03/16 06:54:27;;;;;;;78.77;46.50;;;6.50;99.90;;;;;;5047375;28;20231;-90
2022/03/16 06:57:17;;;;;;;84.33;46.77;;;6.60;99.90;;;;;;5057854;28;20637;-90
2022/03/16 07:00:21;;;;;;;80.80;47.20;;;6.70;99.90;;;;;;5069090;28;20249;-90
2022/03/16 07:03:10;;;;;;;79.47;44.43;;;6.60;99.90;;;;;;5067945;28;20220;-89
2022/03/16 07:06:00;;;;;;;80.67;48.33;;;6.60;99.90;;;;;;5066727;28;20263;-86
2022/03/16 07:08:50;;;;;;;80.57;48.53;;;6.70;99.90;;;;;;5053564;28;20366;-89
2022/03/16 07:11:40;;;;;;;84.23;46.73;;;6.70;99.90;;;;;;5069291;28;20227;-87
2022/03/16 07:14:32;;;;;;;85.00;47.97;;;6.70;99.90;;;;;;5053070;28;20226;-85
2022/03/16 07:17:22;;;;;;;84.97;49.70;;;6.70;99.90;;;;;;5058086;28;20220;-87
2022/03/16 07:20:12;;;;;;;83.07;47.87;;;6.80;99.90;;;;;;5069161;28;20230;-80
2022/03/16 07:23:05;;;;;;;88.97;50.07;;;6.90;99.90;;;;;;5070082;28;20702;-84
2022/03/16 07:25:56;;;;;;;91.90;50.57;;;7.10;99.90;;;;;;5067837;28;20224;-83
2022/03/16 07:28:47;;;;;;;76.30;43.10;;;7.20;99.90;;;;;;5066483;28;20220;-81
2022/03/16 07:31:36;;;;;;;81.50;48.47;;;7.20;99.90;;;;;;5050725;28;20679;-82
2022/03/16 07:34:26;;;;;;;79.50;47.60;;;7.00;99.90;;;;;;5066073;28;20779;-83
2022/03/16 07:37:19;;;;;;;79.37;45.70;;;7.20;99.90;;;;;;5048299;28;20224;-84
2022/03/16 07:40:08;;;;;;;81.27;46.47;;;7.30;99.90;;;;;;5047781;28;20239;-84
2022/03/16 07:42:57;;;;;;;83.50;49.60;;;7.20;99.90;;;;;;5064254;28;20299;-83
2022/03/16 07:45:47;;;;;;;81.73;49.83;;;7.20;99.90;;;;;;5059057;28;20224;-83
2022/03/16 07:48:37;;;;;;;86.00;47.77;;;7.50;99.90;;;;;;5058622;28;20217;-82
2022/03/16 07:51:26;;;;;;;83.63;48.87;;;7.60;99.90;;;;;;5052566;28;20224;-82
2022/03/16 07:54:15;;;;;;;84.53;48.17;;;7.70;99.90;;;;;;5049746;28;20227;-81
2022/03/16 07:57:06;;;;;;;82.83;44.83;;;7.80;99.90;;;;;;5047616;28;20364;-82
2022/03/16 07:59:57;;;;;;;83.43;50.20;;;7.80;99.90;;;;;;5052271;28;20224;-83
2022/03/16 08:02:47;;;;;;;83.33;48.70;;;7.70;99.90;;;;;;5064737;28;20744;-83
2022/03/16 08:05:36;;;;;;;85.13;47.87;;;7.90;99.90;;;;;;5063848;28;20248;-83
2022/03/16 08:08:25;;;;;;;91.60;47.90;;;8.10;99.90;;;;;;5080638;28;20705;-83
2022/03/16 08:11:15;;;;;;;77.93;49.37;;;8.20;99.90;;;;;;5052997;28;20228;-84
2022/03/16 08:14:04;;;;;;;84.67;49.50;;;8.40;99.90;;;;;;5046303;28;20705;-85
2022/03/16 08:16:53;;;;;;;81.60;47.83;;;8.60;99.90;;;;;;5053166;28;20224;-84
2022/03/16 08:19:45;;;;;;;83.90;51.20;;;8.70;99.90;;;;;;5065539;28;20316;-84
2022/03/16 08:22:35;;;;;;;85.07;50.53;;;9.00;99.90;;;;;;5052180;28;20250;-84
2022/03/16 08:25:24;;;;;;;82.40;46.03;;;8.90;99.90;;;;;;5060519;28;20234;-83
2022/03/16 08:28:13;;;;;;;86.47;49.43;;;8.90;99.90;;;;;;5048627;28;20233;-82
2022/03/16 08:31:03;;;;;;;82.93;47.20;;;9.20;99.90;;;;;;5051661;28;20308;-81
2022/03/16 08:33:54;;;;;;;93.93;49.53;;;9.10;99.90;;;;;;5061784;28;20978;-82
2022/03/16 08:36:44;;;;;;;85.17;48.33;;;9.30;99.90;;;;;;5047388;28;20686;-82
2022/03/16 08:39:33;;;;;;;85.70;47.83;;;9.40;99.90;;;;;;5052081;28;20217;-83
2022/03/16 08:42:22;;;;;;;85.03;51.07;;;9.40;99.90;;;;;;5049829;28;20762;-82
2022/03/16 08:45:11;;;;;;;83.13;49.90;;;9.50;99.90;;;;;;5048777;28;20239;-83
2022/03/16 08:48:01;;;;;;;79.40;48.57;;;9.70;99.90;;;;;;5063672;28;20312;-81
2022/03/16 08:50:50;;;;;;;76.80;47.97;;;9.80;99.90;;;;;;5051085;28;20717;-82
2022/03/16 08:53:40;;;;;;;81.87;46.47;;;9.90;99.90;;;;;;5048254;28;20231;-81
2022/03/16 08:56:29;;;;;;;78.30;46.53;;;9.40;99.90;;;;;;5046872;28;20246;-80
2022/03/16 08:59:19;;;;;;;80.00;48.50;;;9.50;99.90;;;;;;5063291;28;20242;-80
2022/03/16 09:02:09;;;;;;;83.40;48.97;;;9.60;99.90;;;;;;5062449;28;20245;-81
2022/03/16 09:04:58;;;;;;;87.80;49.17;;;9.60;99.90;;;;;;5079813;28;20241;-81
2022/03/16 09:07:48;;;;;;;82.83;44.93;;;9.60;99.90;;;;;;5082415;28;20211;-83
2022/03/16 09:10:39;;;;;;;79.13;47.20;;;9.40;99.90;;;;;;5069377;28;20233;-81
2022/03/16 09:13:28;;;;;;;77.00;47.67;;;9.50;99.90;;;;;;5057141;28;20314;-81
2022/03/16 09:16:18;;;;;;;75.07;45.77;;;9.50;99.90;;;;;;5066419;28;20214;-81
2022/03/16 09:19:07;;;;;;;76.57;48.17;;;9.50;99.90;;;;;;5080691;28;20832;-81
2022/03/16 09:21:56;;;;;;;83.50;48.67;;;9.50;99.90;;;;;;5059156;28;20227;-81
2022/03/16 09:24:48;;;;;;;82.70;48.73;;;9.70;99.90;;;;;;5065430;28;20764;-81
2022/03/16 09:27:38;;;;;;;80.27;47.23;;;9.70;99.90;;;;;;5061152;28;20728;-81
2022/03/16 09:30:27;;;;;;;84.37;49.43;;;9.60;99.90;;;;;;5043498;28;20380;-81
2022/03/16 09:33:17;;;;;;;79.87;48.07;;;9.70;99.90;;;;;;5065041;28;20223;-81
2022/03/16 09:36:08;;;;;;;80.87;48.23;;;9.90;99.90;;;;;;5048079;28;20314;-80
2022/03/16 09:38:57;;;;;;;77.13;46.20;;;10.00;99.90;;;;;;5063772;28;20232;-81
2022/03/16 09:41:46;;;;;;;75.37;45.93;;;10.00;99.90;;;;;;5066689;28;20223;-80
2022/03/16 09:44:37;;;;;;;73.47;44.07;;;10.00;99.90;;;;;;5093466;28;20237;-80
2022/03/16 09:47:27;;;;;;;74.40;44.10;;;10.00;99.90;;;;;;5071205;28;20342;-79
2022/03/16 09:50:18;;;;;;;70.93;44.38;;;10.00;99.90;;;;;;5067851;28;20226;-80
2022/03/16 09:53:08;;;;;;;69.87;43.97;;;10.10;99.90;;;;;;5057198;28;20215;-81
2022/03/16 09:56:00;;;;;;;76.70;46.10;;;10.10;99.90;;;;;;5062897;28;20291;-80
2022/03/16 09:58:49;;;;;;;73.22;45.30;;;10.30;99.90;;;;;;5062755;28;20296;-81
2022/03/16 10:01:39;;;;;;;69.20;44.37;;;10.40;99.90;;;;;;5059172;28;20216;-80
2022/03/16 10:04:30;;;;;;;68.57;43.97;;;10.50;99.90;;;;;;5044712;28;20220;-80
2022/03/16 10:07:26;;;;;;;75.33;42.43;;;10.60;99.90;;;;;;5059999;28;20216;-80
2022/03/16 10:13:23;;;;;;;63.22;40.45;;;10.70;99.90;;;;;;5046612;28;20220;-81
2022/03/16 10:16:12;;;;;;;61.67;41.00;;;10.60;99.90;;;;;;5066292;28;20219;-81
2022/03/16 10:19:03;;;;;;;61.40;39.50;;;10.60;99.90;;;;;;5062401;28;20223;-81
2022/03/16 10:21:58;;;;;;;63.47;36.10;;;10.70;99.90;;;;;;5045249;28;20242;-81
2022/03/16 10:24:47;;;;;;;52.58;33.55;;;10.80;99.90;;;;;;5061013;28;20272;-81
2022/03/16 10:27:38;;;;;;;59.38;36.53;;;10.90;99.90;;;;;;5062721;28;20220;-81
2022/03/16 10:30:28;;;;;;;49.60;33.42;;;10.80;99.90;;;;;;5048097;28;20317;-81
2022/03/16 10:33:19;;;;;;;47.92;32.70;;;10.80;99.90;;;;;;5044783;28;20216;-80
2022/03/16 10:36:11;;;;;;;48.65;31.45;;;10.90;99.90;;;;;;5049579;28;20567;-80
2022/03/16 10:39:02;;;;;;;44.97;30.02;;;11.00;99.90;;;;;;5044314;28;20217;-80
2022/03/16 10:48:23;;;;;;;45.50;29.70;;;11.10;99.90;;;;;;5058327;28;20223;-80
2022/03/16 10:51:19;;;;;;;44.00;30.80;;;11.10;99.90;;;;;;5046270;28;20580;-78
2022/03/16 10:54:09;;;;;;;43.17;29.60;;;11.20;99.90;;;;;;5073528;28;20807;-79
2022/03/16 10:57:02;;;;;;;44.88;29.38;;;11.30;99.90;;;;;;5073345;28;20216;-80
2022/03/16 10:59:53;;;;;;;42.70;27.08;;;11.50;99.90;;;;;;5049790;28;20231;-82
2022/03/16 11:02:45;;;;;;;42.63;29.60;;;11.40;99.90;;;;;;5058484;28;20234;-81
2022/03/16 11:05:37;;;;;;;42.42;29.83;;;11.30;99.90;;;;;;5047844;28;20246;-82
2022/03/16 11:08:28;;;;;;;50.05;31.92;;;11.50;99.90;;;;;;5051284;28;20286;-82
2022/03/16 11:14:27;;;;;;;40.83;28.90;;;11.50;99.90;;;;;;5062901;28;20695;-81
2022/03/16 11:17:17;;;;;;;42.20;28.45;;;11.70;99.90;;;;;;5047337;28;20262;-81
2022/03/16 11:20:09;;;;;;;44.28;29.33;;;11.60;99.90;;;;;;5047804;28;20212;-81
2022/03/16 11:26:24;;;;;;;41.80;30.20;;;11.90;99.90;;;;;;5066336;28;20224;-81
2022/03/16 11:29:21;;;;;;;43.42;28.60;;;11.90;99.80;;;;;;5070939;28;20256;-81
2022/03/16 11:32:11;;;;;;;41.38;29.70;;;12.10;96.90;;;;;;5086066;28;20511;-80
2022/03/16 11:35:00;;;;;;;46.10;29.80;;;12.20;95.80;;;;;;5086821;28;20299;-80
2022/03/16 11:37:52;;;;;;;43.42;28.40;;;12.30;94.90;;;;;;5071371;28;20219;-80
2022/03/16 11:40:43;;;;;;;48.83;31.98;;;12.30;94.70;;;;;;5072361;28;20246;-80
2022/03/16 11:43:33;;;;;;;45.42;31.40;;;12.40;95.00;;;;;;5069872;28;20226;-79
2022/03/16 11:46:29;;;;;;;42.42;30.60;;;12.40;94.60;;;;;;5069313;28;20223;-80
2022/03/16 11:49:28;;;;;;;44.92;30.88;;;12.40;94.70;;;;;;5086264;28;20272;-81
2022/03/16 11:52:17;;;;;;;45.60;30.98;;;12.30;95.00;;;;;;5086530;28;20227;-80
2022/03/16 11:55:08;;;;;;;47.38;30.25;;;12.40;94.40;;;;;;5070574;28;20231;-79
2022/03/16 11:57:58;;;;;;;48.20;32.25;;;12.50;94.40;;;;;;5070809;28;20214;-81
2022/03/16 12:00:48;;;;;;;48.83;32.08;;;12.40;94.40;;;;;;5086361;28;20705;-80
2022/03/16 12:03:44;;;;;;;45.63;31.90;;;12.50;94.20;;;;;;5083626;28;20219;-85
2022/03/16 12:06:53;;;;;;;46.35;33.05;;;12.70;93.80;;;;;;5102652;27;20237;-84
2022/03/16 12:09:45;;;;;;;43.88;31.67;;;12.70;93.20;;;;;;5079266;28;20732;-85
2022/03/16 12:12:54;;;;;;;44.88;32.67;;;12.70;93.10;;;;;;5087669;28;20571;-86
2022/03/16 12:15:47;;;;;;;43.13;30.98;;;12.80;92.70;;;;;;5085468;28;20628;-84
2022/03/16 12:18:43;;;;;;;45.88;31.30;;;12.80;92.50;;;;;;5086762;28;20230;-83
2022/03/16 12:21:35;;;;;;;45.42;28.88;;;12.90;91.80;;;;;;5098753;28;20231;-84
2022/03/16 12:30:50;;;;;;;35.85;24.65;;;12.70;87.00;;;;;;5072994;28;20226;-84
2022/03/16 12:33:42;;;;;;;32.97;24.00;;;12.80;86.10;;;;;;5069306;28;20215;-85
2022/03/16 12:36:32;;;;;;;33.25;24.40;;;12.80;85.70;;;;;;5070749;28;20310;-85
2022/03/16 12:39:21;;;;;;;32.30;22.83;;;12.90;86.10;;;;;;5075639;28;20220;-85
2022/03/16 12:45:19;;;;;;;29.27;21.60;;;12.80;80.20;;;;;;5070894;28;20273;-84
2022/03/16 12:48:13;;;;;;;29.27;21.77;;;13.00;78.50;;;;;;5074413;28;20681;-90
2022/03/16 12:51:05;;;;;;;30.77;23.27;;;13.00;77.40;;;;;;5068611;28;20223;-82
2022/03/16 12:53:58;;;;;;;36.15;22.25;;;13.10;77.90;;;;;;5066187;28;20626;-80
2022/03/16 12:56:50;;;;;;;33.97;23.48;;;13.00;77.60;;;;;;5080081;28;20221;-80
2022/03/16 12:59:42;;;;;;;31.65;22.42;;;13.00;78.00;;;;;;5086914;27;20223;-82
2022/03/16 13:02:35;;;;;;;32.65;22.48;;;13.00;78.50;;;;;;5069519;28;20622;-83
2022/03/16 13:05:26;;;;;;;31.58;21.00;;;13.00;78.10;;;;;;5084948;28;20227;-85
2022/03/16 13:08:23;;;;;;;31.52;20.25;;;13.00;76.40;;;;;;5068520;28;20242;-83
2022/03/16 13:11:19;;;;;;;32.55;20.88;;;13.10;73.30;;;;;;5088762;28;20220;-85
2022/03/16 13:14:13;;;;;;;29.58;21.05;;;13.10;71.70;;;;;;5088045;28;20245;-86
2022/03/16 13:17:04;;;;;;;30.42;21.92;;;13.10;70.10;;;;;;5073212;28;20279;-85
2022/03/16 13:19:55;;;;;;;33.22;21.55;;;13.10;70.40;;;;;;5085357;28;20214;-86
2022/03/16 13:22:44;;;;;;;35.47;22.00;;;13.30;70.00;;;;;;5104942;28;20227;-84
2022/03/16 13:25:35;;;;;;;32.35;22.38;;;13.40;69.30;;;;;;5080973;28;20225;-86
2022/03/16 13:28:24;;;;;;;33.83;22.40;;;13.40;69.50;;;;;;5094563;28;20340;-85
2022/03/16 13:31:13;;;;;;;34.28;22.95;;;13.40;70.00;;;;;;5109001;28;20216;-85
2022/03/16 13:34:03;;;;;;;33.95;22.98;;;13.40;70.30;;;;;;5098778;27;20226;-85
2022/03/16 13:36:53;;;;;;;40.80;23.55;;;13.50;70.50;;;;;;5083242;28;20682;-84
2022/03/16 13:39:56;;;;;;;29.92;22.45;;;13.30;71.20;;;;;;5080461;28;20224;-84
2022/03/16 13:42:47;;;;;;;32.65;22.42;;;13.30;71.40;;;;;;5078041;28;20230;-85
2022/03/16 13:45:41;;;;;;;33.78;23.88;;;13.30;72.10;;;;;;5075358;28;20638;-85
2022/03/16 13:48:39;;;;;;;31.13;22.45;;;13.30;73.10;;;;;;5074632;28;20219;-86
2022/03/16 13:51:32;;;;;;;31.45;23.85;;;13.20;72.60;;;;;;5078884;28;20227;-85
2022/03/16 13:54:26;;;;;;;35.78;23.52;;;13.30;72.80;;;;;;5094206;28;20372;-86
2022/03/16 13:57:17;;;;;;;36.63;25.10;;;13.40;72.30;;;;;;5078380;28;20238;-86
2022/03/16 14:00:10;;;;;;;34.30;24.27;;;13.30;72.60;;;;;;5078065;28;20769;-85
2022/03/16 14:03:10;;;;;;;35.63;23.35;;;13.40;72.50;;;;;;5076052;28;20351;-86
2022/03/16 14:06:11;;;;;;;31.08;22.98;;;13.40;72.20;;;;;;5082097;28;20224;-85
2022/03/16 14:08:59;;;;;;;36.88;23.55;;;13.40;71.50;;;;;;5085365;28;20227;-85
2022/03/16 14:11:49;;;;;;;35.08;24.00;;;13.40;71.80;;;;;;5080560;28;20219;-85
2022/03/16 14:14:38;;;;;;;34.22;24.75;;;13.50;73.00;;;;;;5058065;28;20227;-85
2022/03/16 14:17:42;;;;;;;33.83;25.02;;;13.40;73.40;;;;;;5082166;28;20292;-85
2022/03/16 14:20:34;;;;;;;36.60;25.83;;;13.40;74.50;;;;;;5073514;28;20238;-84
2022/03/16 14:23:23;;;;;;;35.50;25.10;;;13.50;74.90;;;;;;5075872;28;20223;-85
2022/03/16 14:26:12;;;;;;;39.58;25.85;;;13.50;75.20;;;;;;5089587;28;20276;-84
2022/03/16 14:29:01;;;;;;;35.20;24.83;;;13.80;75.10;;;;;;5085482;28;20233;-84
2022/03/16 14:31:51;;;;;;;33.78;25.10;;;13.70;75.30;;;;;;5075532;28;20325;-84
2022/03/16 14:34:42;;;;;;;36.58;25.90;;;13.70;75.20;;;;;;5070136;28;20234;-84
2022/03/16 14:37:32;;;;;;;37.53;27.75;;;13.50;75.40;;;;;;5087539;28;20282;-85
2022/03/16 14:40:23;;;;;;;37.65;26.10;;;13.60;75.40;;;;;;5073763;28;20329;-85
2022/03/16 14:43:12;;;;;;;38.90;27.60;;;13.60;75.50;;;;;;5077088;28;20224;-85
2022/03/16 14:46:01;;;;;;;37.10;26.20;;;13.50;75.30;;;;;;5087504;28;20211;-85
2022/03/16 14:48:50;;;;;;;37.05;26.30;;;13.40;75.30;;;;;;5109762;28;20284;-84
2022/03/16 14:51:40;;;;;;;39.15;26.85;;;13.30;75.20;;;;;;5082416;28;20220;-85
2022/03/16 14:54:29;;;;;;;38.33;26.67;;;13.30;75.40;;;;;;5066605;28;20440;-80
2022/03/16 14:57:18;;;;;;;38.83;26.58;;;13.20;75.70;;;;;;5077822;28;20239;-81